ADDS METAR Data INFO
IDs: Format: Raw Decoded Include TAF

Data at: 0043 UTC 23 Oct 2017

KMWO 230035Z AUTO 13005KT 10SM CLR 20/10 A3010 RMK AO2 T02000097
KMWO 230015Z AUTO 14005KT 10SM CLR 20/10 A3010 RMK AO2 T02030098
KMWO 222355Z AUTO 14004KT 10SM CLR 21/10 A3010 RMK AO2 T02080099 10247 20204 402470065
KMWO 222335Z AUTO 14006KT 10SM CLR 21/10 A3010 RMK AO2 T02110098
KMWO 222315Z AUTO 15009KT 10SM CLR 21/10 A3009 RMK AO2 T02140097
KMWO 222255Z AUTO 15010G15KT 10SM CLR 22/10 A3009 RMK AO2 T02160097
KMWO 222235Z AUTO 17010KT 10SM CLR 22/10 A3010 RMK AO2 T02210100
KMWO 222215Z AUTO 17008KT 10SM CLR 22/10 A3010 RMK AO2 T02230105
KMWO 222155Z AUTO 17010KT 10SM CLR 22/11 A3010 RMK AO2 T02250107
KMWO 222135Z AUTO 18013G17KT 10SM CLR 23/11 A3011 RMK AO2 T02270107
KMWO 222115Z AUTO 18013G17KT 10SM CLR 23/11 A3011 RMK AO2 T02270110
KMWO 222055Z AUTO 19014KT 10SM CLR 24/12 A3011 RMK AO2 T02350115
KMWO 222035Z AUTO 17016KT 10SM CLR 24/11 A3011 RMK AO2 T02430115
KMWO 222015Z AUTO 17009KT 10SM CLR 24/12 A3011 RMK AO2 T02360119
KMWO 221955Z AUTO 17010G20KT 10SM CLR 24/13 A3011 RMK AO2 T02440125
KMWO 221935Z AUTO 17013KT 10SM CLR 24/13 A3011 RMK AO2 T02450126
KMWO 221915Z AUTO 17009KT 10SM CLR 24/13 A3011 RMK AO2 T02430128
KMWO 221855Z AUTO 17010KT 10SM CLR 24/13 A3011 RMK AO2 T02390128
KMWO 221835Z AUTO 16012KT 10SM CLR 24/13 A3012 RMK AO2 T02370128
KMWO 221815Z AUTO 18013G18KT 10SM CLR 24/13 A3014 RMK AO2 T02380126
KMWO 221755Z AUTO 17010KT 10SM CLR 24/13 A3015 RMK AO2 T02410129 10242 20080
KMWO 221735Z AUTO 17012KT 10SM CLR 24/13 A3016 RMK AO2 T02360127
KMWO 221715Z AUTO 20015KT 10SM CLR 23/13 A3017 RMK AO2 T02320126
KMWO 221655Z AUTO 20018G22KT 10SM CLR 23/12 A3018 RMK AO2 T02320124
KMWO 221635Z AUTO 19013KT 10SM CLR 23/12 A3019 RMK AO2 T02290123
KMWO 221615Z AUTO 19016G23KT 10SM CLR 22/12 A3020 RMK AO2 T02210120
KMWO 221555Z AUTO 20018G22KT 10SM CLR 22/11 A3021 RMK AO2 T02170114
KMWO 221535Z AUTO 20017G21KT 10SM CLR 22/11 A3021 RMK AO2 T02190111
KMWO 221515Z AUTO 18011KT 10SM CLR 21/11 A3021 RMK AO2 T02140113
KMWO 221455Z AUTO 17010G14KT 10SM CLR 20/12 A3021 RMK AO2 T02030116
KMWO 221435Z AUTO 17006KT 10SM CLR 19/11 A3021 RMK AO2 T01910112
KMWO 221415Z AUTO 17006KT 10SM CLR 18/11 A3021 RMK AO2 T01800111
KMWO 221355Z AUTO 32003KT 10SM CLR 16/11 A3022 RMK AO2 T01580112
KMWO 221335Z AUTO 00000KT 10SM CLR 15/11 A3022 RMK AO2 T01470111
KMWO 221315Z AUTO 00000KT 10SM CLR 14/11 A3022 RMK AO2 T01350110
KMWO 221255Z AUTO 00000KT 10SM CLR 12/11 A3022 RMK AO2 T01160112
KMWO 221235Z AUTO 00000KT 10SM CLR 09/09 A3021 RMK AO2 T00930091
KMWO 221215Z AUTO 00000KT 7SM CLR 09/08 A3020 RMK AO2 T00860083
KMWO 221155Z AUTO 00000KT 7SM CLR 08/08 A3020 RMK AO2 T00850084 10093 20065
KMWO 221135Z AUTO 00000KT 10SM CLR 08/08 A3020 RMK AO2 T00840083
KMWO 221115Z AUTO 00000KT 3 1/2SM BR CLR 08/08 A3020 RMK AO2 T00770077
KMWO 221055Z AUTO 32003KT 1SM BR VV005 07/07 A3019 RMK AO2 T00730072
KMWO 221035Z AUTO 30003KT 1SM BR VV007 08/08 A3019 RMK AO2 VIS 1/2V5 T00780077
KMWO 221015Z AUTO 00000KT 3/4SM BR VV007 08/08 A3019 RMK AO2 VIS 1/2V3 T00770077
KMWO 220955Z AUTO 00000KT 3/4SM BR VV005 08/08 A3019 RMK AO2 T00800080
KMWO 220935Z AUTO 00000KT 1/2SM FG VV005 08/07 A3019 RMK AO2 T00750075
KMWO 220915Z AUTO 00000KT 5SM BR CLR 07/07 A3019 RMK AO2 T00740074
KMWO 220855Z AUTO 00000KT 1 3/4SM BR CLR 08/08 A3019 RMK AO2 VIS 3/4V5 T00770077
KMWO 220835Z AUTO 00000KT 2SM BR VV007 08/08 A3020 RMK AO2 VIS 3/4V4 T00780077
KMWO 220815Z AUTO 00000KT 7SM CLR 08/08 A3019 RMK AO2 T00770076
KMWO 220755Z AUTO 00000KT 10SM CLR 08/08 A3020 RMK AO2 T00820080
KMWO 220735Z AUTO 00000KT 10SM CLR 08/08 A3020 RMK AO2 T00840082
KMWO 220715Z AUTO 00000KT 10SM CLR 09/09 A3020 RMK AO2 T00870086
KMWO 220655Z AUTO 00000KT 3SM BR CLR 09/08 A3021 RMK AO2 VIS 1 1/4V5 T00860085
KMWO 220635Z AUTO 00000KT 1/2SM FG VV002 09/08 A3021 RMK AO2 T00860085
KMWO 220615Z AUTO 00000KT 5SM BR CLR 09/09 A3020 RMK AO2 T00890088
KMWO 220555Z AUTO 00000KT 7SM BR CLR 09/09 A3019 RMK AO2 LTG DSNT W T00910089 10151 20086
KMWO 220535Z AUTO 00000KT 10SM CLR 09/09 A3019 RMK AO2 T00930091
KMWO 220515Z AUTO 00000KT 3SM BR CLR 09/09 A3020 RMK AO2
KMWO 220455Z AUTO 00000KT 10SM CLR 10/09 A3020 RMK AO2 T00950092
KMWO 220435Z AUTO 00000KT 7SM BR CLR 10/09 A3020 RMK AO2 T00970094
KMWO 220415Z AUTO 00000KT 7SM BR CLR 10/10 A3020 RMK AO2 T01010098
KMWO 220355Z AUTO 00000KT 10SM CLR 10/09 A3020 RMK AO2 T00990095
KMWO 220335Z AUTO 00000KT 10SM CLR 10/10 A3021 RMK AO2 T01010095
KMWO 220315Z AUTO 00000KT 10SM CLR 11/10 A3020 RMK AO2 T01110103
KMWO 220255Z AUTO 00000KT 10SM CLR 11/10 A3021 RMK AO2 T01070099
KMWO 220235Z AUTO 00000KT 10SM CLR 12/10 A3021 RMK AO2 T01180105
KMWO 220215Z AUTO 00000KT 10SM CLR 13/11 A3021 RMK AO2 T01270111
KMWO 220155Z AUTO 00000KT 10SM CLR 13/11 A3022 RMK AO2 T01270111
KMWO 220135Z AUTO 00000KT 10SM CLR 13/11 A3022 RMK AO2 T01290110
KMWO 220115Z AUTO 00000KT 10SM CLR 13/11 A3022 RMK AO2 T01310112
KMWO 220055Z AUTO 00000KT 10SM CLR 13/11 A3022 RMK AO2 T01320111
KMWO 220035Z AUTO 00000KT 10SM CLR 14/12 A3022 RMK AO2 LTG DSNT NW T01450115
KMWO 220015Z AUTO 00000KT 10SM CLR 14/12 A3022 RMK AO2 T01430117
KMWO 212355Z AUTO 00000KT 10SM CLR 15/12 A3022 RMK AO2 T01470117 10232 20145 402320075
KMWO 212335Z AUTO 00000KT 10SM CLR 15/11 A3021 RMK AO2 T01480114
KMWO 212315Z AUTO 00000KT 7SM HZ CLR 16/11 A3021 RMK AO2 T01640108
KMWO 212255Z AUTO 17003KT 10SM CLR 20/08 A3021 RMK AO2 T01970085
KMWO 212235Z AUTO 18005KT 10SM CLR 20/08 A3021 RMK AO2 T02040083
KMWO 212215Z AUTO 18007KT 10SM CLR 21/08 A3021 RMK AO2 T02090084
KMWO 212155Z AUTO 19006KT 10SM CLR 22/09 A3021 RMK AO2 T02200087
KMWO 212135Z AUTO 19007KT 10SM CLR 22/09 A3021 RMK AO2 T02170085
KMWO 212115Z AUTO 18009KT 10SM CLR 22/08 A3021 RMK AO2 T02240079
KMWO 212055Z AUTO 19010KT 10SM CLR 23/08 A3021 RMK AO2 T02250078
KMWO 212035Z AUTO 19008KT 10SM CLR 23/08 A3021 RMK AO2 T02250085
KMWO 212015Z AUTO 18009KT 10SM CLR 23/09 A3021 RMK AO2 T02280093
KMWO 211955Z AUTO 22007KT 10SM CLR 23/10 A3022 RMK AO2 T02300101
KMWO 211935Z AUTO 26007KT 10SM CLR 22/10 A3022 RMK AO2 T02250102
KMWO 211915Z AUTO 22007KT 10SM CLR 22/10 A3022 RMK AO2 T02190098
KMWO 211855Z AUTO 22010KT 10SM CLR 21/09 A3022 RMK AO2 T02150092
KMWO 211835Z AUTO 20008KT 10SM CLR 21/10 A3022 RMK AO2 T02130097
KMWO 211815Z AUTO 21008KT 10SM CLR 21/10 A3024 RMK AO2 T02120099
KMWO 211755Z AUTO 22008KT 10SM CLR 21/10 A3024 RMK AO2 T02120102 10218 20076
KMWO 211735Z AUTO 22008KT 10SM CLR 21/10 A3024 RMK AO2 T02130105
KMWO 211715Z AUTO 22009KT 10SM CLR 21/10 A3025 RMK AO2 T02120101
KMWO 211655Z AUTO 18007KT 10SM CLR 21/12 A3025 RMK AO2 T02130116
KMWO 211635Z AUTO 20005KT 10SM CLR 21/12 A3026 RMK AO2 T02100121
KMWO 211615Z AUTO 19007KT 10SM CLR 21/12 A3025 RMK AO2 T02080120
KMWO 211555Z AUTO 20006KT 10SM CLR 20/12 A3026 RMK AO2 T02050124
KMWO 211535Z AUTO 19008KT 10SM CLR 20/12 A3026 RMK AO2 T01990119
KMWO 211515Z AUTO 19005KT 10SM CLR 19/13 A3026 RMK AO2 T01890131
KMWO 211455Z AUTO 19004KT 10SM CLR 18/13 A3026 RMK AO2 T01770128
KMWO 211435Z AUTO 00000KT 10SM CLR 16/13 A3025 RMK AO2 T01640130
KMWO 211415Z AUTO 00000KT 10SM CLR 15/12 A3026 RMK AO2 T01450124
KMWO 211355Z AUTO 00000KT 10SM CLR 14/12 A3026 RMK AO2 T01350119
KMWO 211335Z AUTO 00000KT 7SM BR CLR 12/12 A3026 RMK AO2 T01220116
KMWO 211315Z AUTO 00000KT 5SM BR CLR 10/10 A3026 RMK AO2 T01050102
KMWO 211255Z AUTO 00000KT 3SM BR CLR 09/09 A3025 RMK AO2 T00930093